Manuel Castro

Chefscout - Eibar
14 Okt 2027
Donnerstag
Verarbeitung

Persönlichkeit

Anpassungsfähigkeit (11) Ehrgeiz (18) Kontroverse (4) Loyalität (6) Druck (11) Professionalität (20) Fairness (2) Temperament (15)

Profil

Trainerstil Demokratisch
Lizenz Nationale B
Entschlossenheit 9
Menschenführung 6
Motivation 10
Disziplin 6
Arbeitszufriedenheit
77%
Ermüdung
0%
Rolle Chefscout
Gehalt 74.7K p/W
Vertrag 14.03.2028

Leistung

Verhalten Gut
Trainingseffektivität
22%
Spielerentwicklung
55%
Verletzungsprävention
20%
Taktische Umsetzung
20%

Letzte Ereignisse

Spieler begutachtet jetzt
Nahm an einer Scouting-Besprechung teil jetzt
Empfahl ein Transferziel 7T her
Nahm an einer Scouting-Besprechung teil 7T her
Spieler begutachtet 7T her
Spieler begutachtet 7T her
Spieler begutachtet 7T her
Spiel beobachtet 7T her

Aktuell beobachtet

115
Spieler Verein Status Fähigkeit Vertrauen Beobachtet Zuletzt beobachtet Letzte Stimme
Ricky Atletico Venezuela Aktiv 105 / 106 40% 2 11.10.2027 -
Esteban de Lima Tacuarembo Aktiv 91 / 87 40% 1 11.10.2027 -
Joel Ezra Enyimba Aktiv 91 / 118 40% 1 08.10.2027 -
Sebastián Ramírez Jaguares Aktiv 115 / 122 40% 1 08.10.2027 -
Samuel Posada Leones Aktiv 94 / 103 40% 1 07.10.2027 -
Celías Ingenthron Vélez Aktiv 113 / 126 40% 1 07.10.2027 -
Issa Yusuf Shooting Stars Aktiv 86 / 92 40% 1 07.10.2027 -
Ignacio Fernández Boston River Aktiv 81 / 112 40% 1 05.10.2027 -
Luis Otávio Colorado Rapids Aktiv 106 / 114 40% 1 05.10.2027 -
Cristian Guzmán Universitario Popayan Aktiv 88 / 76 40% 1 05.10.2027 -
Martín Jiménez Audax Italiano Aktiv 100 / 113 40% 1 04.10.2027 -
Juan Diego Perdomo Depor Aktiv 94 / 76 40% 1 04.10.2027 -
Samuel Martín Millonarios Aktiv 116 / 128 40% 1 04.10.2027 -
David Damboama El-Kanemi Warriors Aktiv 81 / 95 40% 1 30.08.2027 -
Marcus Forss Girona Bericht bereit 114 / 109 72% 1 19.07.2027 -
Leo Castledine Middlesbrough Aktiv 136 / 144 40% 1 12.07.2027 -
Gianluca Prestianni Benfica Aktiv 137 / 135 40% 1 12.07.2027 -
Yusi Alavés Aktiv 137 / 145 40% 10 28.06.2027 -
Lander Astiazarán Real Sociedad Aktiv 100 / 103 67% 2 28.06.2027 Beobachten
Shea Lacey Wolverhampton Aktiv 124 / 128 40% 1 28.06.2027 -
Caleb Yirenkyi Coventry City Aktiv 136 / 147 40% 9 14.06.2027 -
Dion Beljo Standard Liege Verhandlung 131 / 132 66% 1 01.06.2027 -
Pablo Solari Galatasaray Verhandlung 128 / 128 68% 1 01.06.2027 -
Davide Bartesaghi AC Milan Aktiv 133 / 140 40% 6 31.05.2027 -
Christos Mouzakitis Hull City Aktiv 127 / 141 40% 7 30.05.2027 -
Jon Garro Real Sociedad Aktiv 84 / 101 40% 3 30.05.2027 -
David Valencia Alianza Petrolera Aktiv 128 / 122 40% 2 30.05.2027 -
Adam Bakoune Ospitaletto Aktiv 94 / 96 40% 1 29.05.2027 -
Jofre Torrents Ajax Aktiv 130 / 138 40% 6 27.05.2027 -
Leandro Martins Benfica Aktiv 93 / 88 40% 2 27.05.2027 -
Josh King Chelsea Aktiv 144 / 138 40% 6 24.05.2027 -
Lucas Høgsberg RC Strasbourg Aktiv 139 / 136 40% 8 24.05.2027 -
Percy Jali Free State Stars Aktiv 101 / 89 40% 3 24.05.2027 -
José Pachuca Puebla Aktiv 103 / 129 40% 6 21.05.2027 -
Samuel Lucero Defensa y Justicia Aktiv 117 / 132 40% 3 20.05.2027 -
Yussif Saidu Zaragoza Aktiv 117 / 134 40% 5 20.05.2027 -
Jan Bürger Gillingham Aktiv 104 / 115 40% 4 19.05.2027 -
Sascha Britschgi Padova Aktiv 120 / 128 40% 1 18.05.2027 -
Dylan Lawlor Cardiff City Aktiv 118 / 126 40% 4 17.05.2027 -
Nazareno Kihm Ferro Carril Oeste Aktiv 118 / 134 40% 2 16.05.2027 -
Toni Tamarit Alverca Aktiv 109 / 133 40% 2 14.05.2027 -
Matías Gómez Granada Aktiv 107 / 117 40% 2 12.05.2027 -
Kevin Vazquez Cruz Azul Aktiv 130 / 137 40% 13 10.05.2027 -
Finn Jeltsch VfB Stuttgart Aktiv 142 / 133 40% 2 06.05.2027 -
Izan Merino Málaga Aktiv 116 / 127 40% 6 03.05.2027 -
Kazunari Kita Real Sociedad Aktiv 93 / 94 40% 2 03.05.2027 -
Johan Manzambi Newcastle United Aktiv 136 / 142 40% 1 03.05.2027 -
Christ Inao Oulaï Fiorentina Aktiv 134 / 133 40% 5 01.05.2027 -
Bernardo Lima Porto Aktiv 92 / 111 40% 2 01.05.2027 -
Darryl Bakola Padova Aktiv 112 / 108 40% 1 01.05.2027 -
Zane Albarus Cambridge United Aktiv 92 / 111 40% 2 30.04.2027 -
Daniel Vernattus Metalist Aktiv 83 / 82 40% 1 30.04.2027 -
Riley Owen Trento Aktiv 101 / 118 40% 1 29.04.2027 -
Pietro Reggiori Pro Patria Aktiv 95 / 95 40% 1 28.04.2027 -
Matvey Kislyak CSKA Moscow Aktiv 130 / 146 40% 2 19.04.2027 -
Lucas Agazzi Defensor Sporting Aktiv 123 / 123 40% 2 18.04.2027 -
David Ozoh Derby County Aktiv 122 / 135 40% 2 18.04.2027 -
Ibrahim Maza Bayer Leverkusen Aktiv 151 / 139 40% 6 17.04.2027 -
Martim Cunha Porto Aktiv 101 / 110 40% 2 17.04.2027 -
Taras Mykhavko Dynamo Kyiv Aktiv 131 / 144 40% 1 16.04.2027 -
Keagan Tau Ajax Cape Town Aktiv 99 / 95 40% 3 15.04.2027 -
Juan Giménez Celta Aktiv 119 / 126 40% 1 12.04.2027 -
Ernie Weaver AFC Wimbledon Aktiv 110 / 110 40% 1 11.04.2027 -
Mpho Khethang AS Police Aktiv 75 / 85 40% 1 06.04.2027 -
Pape Diong Westerlo Aktiv 105 / 116 40% 1 31.03.2027 -
Zaïd BafdilI Sporting CP Aktiv 84 / 92 40% 1 28.03.2027 -
Keagan Phiri Platinum Stars Aktiv 102 / 101 40% 1 22.03.2027 -
Tiago Freitas Benfica Aktiv 115 / 114 40% 2 18.03.2027 -
Joaquin Seys Club Brugge Aktiv 132 / 124 40% 1 18.03.2027 -
Cemran Dansin Orlando Pirates Aktiv 116 / 111 40% 2 17.03.2027 -
Joel McGregor Swindon Town Aktiv 87 / 110 40% 1 16.03.2027 -
James Dornelly Peterborough United Aktiv 106 / 101 40% 1 11.03.2027 -
Hlompho Lorch Ajax Cape Town Aktiv 94 / 112 40% 1 11.03.2027 -
Gonçalo Oliveira Benfica Aktiv 101 / 125 40% 1 09.03.2027 -
Ronwen Phiri Platinum Stars Aktiv 103 / 94 40% 1 09.03.2027 -
Noah Nartey Olympique Lyonnais Aktiv 131 / 129 40% 1 08.03.2027 -
Andreas Trimmel Red Bull Salzburg Aktiv 131 / 131 60% 1 01.01.2027 -
Nicolò Tresoldi Club Brugge Verloren 129 / 133 67% 1 01.01.2027 -
Ethan Williams Peterborough United Aktiv 110 / 115 40% 1 31.12.2026 -
Kyriani Sabbe Club Brugge Aktiv 114 / 138 40% 1 30.12.2026 -
Warren Zaïre-Emery Paris Saint-Germain Aktiv 154 / 160 40% 1 30.12.2026 -
Malick Fofana Sunderland Aktiv 144 / 154 40% 2 29.12.2026 -
Endrick Real Madrid Aktiv 140 / 146 40% 1 29.12.2026 -
Jesús Rodríguez Como Aktiv 136 / 154 40% 2 28.12.2026 -
Rayane Bounida Ajax Aktiv 133 / 134 40% 1 28.12.2026 -
Robert FC Copenhagen Aktiv 134 / 113 40% 3 20.12.2026 -
Kevin Álvarez Patriotas Aktiv 104 / 98 40% 1 20.12.2026 -
William Gomes Porto Aktiv 140 / 156 40% 1 15.12.2026 -
Patrick Preciado Deportivo Pasto Aktiv 103 / 120 40% 2 13.12.2026 -
David Mella Deportivo La Coruña Aktiv 133 / 128 40% 1 13.12.2026 -
Tristan Degreef Anderlecht Aktiv 121 / 120 40% 2 10.12.2026 -
Sidiki Chérif Coventry City Aktiv 122 / 120 40% 1 10.12.2026 -
Othmane Maamma Watford Aktiv 119 / 126 40% 1 07.12.2026 -
Giovanni Cantizano Rosario Central Aktiv 119 / 133 40% 2 23.11.2026 -
Caylan Vickers Burton Albion Aktiv 113 / 112 40% 1 22.11.2026 -
Valentino Acuña Newell's Old Boys Aktiv 107 / 108 40% 1 19.11.2026 -
Ian Garguez Palestino Aktiv 111 / 128 40% 1 15.11.2026 -
Lautaro Vargas Leganés Aktiv 117 / 137 40% 1 11.11.2026 -
Tobías Correa Gamba Osaka Aktiv 95 / 97 40% 1 11.11.2026 -
Arjan Malić Sturm Graz Aktiv 115 / 129 40% 1 09.11.2026 -
Javier Mena Portimonense Aktiv 117 / 128 40% 1 08.11.2026 -
El Hadji Malick Diouf Brentford Aktiv 141 / 133 40% 3 06.11.2026 -
Felipe Obradovich Ferro Carril Oeste Aktiv 103 / 108 40% 1 06.10.2026 -
Axel Frugone Defensor Sporting Aktiv 113 / 131 40% 1 05.10.2026 -
Simón Pinto Palestino Aktiv 100 / 95 40% 1 05.10.2026 -
Bianneider Tamayo Universidad de Chile Aktiv 114 / 99 40% 1 11.09.2026 -
Mateo Mendoza Godoy Cruz Aktiv 120 / 128 40% 1 10.09.2026 -
Felipe Faúndez O'Higgins Aktiv 94 / 124 40% 1 08.09.2026 -
Octavio Ontivero Lanús Aktiv 108 / 119 40% 1 25.08.2026 -
Jack Hinshelwood Brighton Aktiv 144 / 138 40% 1 25.08.2026 -
Alan Forneris Racing Club Aktiv 120 / 102 40% 1 25.08.2026 -
Mickaël Malsa Mirandés Aktiv 112 / 124 72% 1 10.08.2026 Befürworten
Jorrel Hato Chelsea Aktiv 143 / 144 40% 1 10.08.2026 -
Keimer Sandoval Deportivo Cali Aktiv 90 / 86 40% 1 10.08.2026 -
Mateo Raschia Unión de Santa Fe Aktiv 97 / 77 40% 1 03.08.2026 -